Time;durP1;ratioP1;P1;durP2;ratioP2;P2;SDS_P1;SDS_P2;PMS_P1;PMS_P2;Temp;Humidity;BMP_temperature;BMP_pressure;BME280_temperature;BME280_humidity;BME280_pressure;Samples;Min_cycle;Max_cycle;Signal;HPM_P1;HPM_P2
2021/08/16 00:02:16;;;;;;;9.60;1.33;;;18.50;47.60;;;;;;4820163;28;20599;-75
2021/08/16 00:04:38;;;;;;;7.30;1.03;;;;;;;;;;4812426;28;20712;-75
2021/08/16 00:07:01;;;;;;;10.70;1.53;;;;;;;;;;4804327;28;20200;-75
2021/08/16 00:09:25;;;;;;;8.10;1.17;;;;;;;;;;4808899;28;20187;-78
2021/08/16 00:11:48;;;;;;;7.47;1.10;;;;;;;;;;4809107;28;20232;-75
2021/08/16 00:14:10;;;;;;;6.93;1.03;;;;;;;;;;4815838;28;20238;-77
2021/08/16 00:16:33;;;;;;;7.77;1.13;;;;;;;;;;4809005;28;20259;-75
2021/08/16 00:18:57;;;;;;;14.00;2.03;;;18.50;47.10;;;;;;4810259;28;20193;-76
2021/08/16 00:21:20;;;;;;;10.43;1.53;;;;;;;;;;4793882;28;20246;-76
2021/08/16 00:23:43;;;;;;;7.50;1.10;;;;;;;;;;4811784;28;20186;-75
2021/08/16 00:26:06;;;;;;;12.17;1.77;;;;;;;;;;4809987;28;20200;-77
2021/08/16 00:28:30;;;;;;;6.67;1.00;;;;;;;;;;4823386;28;20224;-75
2021/08/16 00:30:53;;;;;;;14.03;1.90;;;;;;;;;;4801536;28;20200;-76
2021/08/16 00:33:15;;;;;;;9.57;1.37;;;;;;;;;;4809617;28;20694;-76
2021/08/16 00:35:39;;;;;;;8.73;1.20;;;19.00;48.10;;;;;;4812200;28;20188;-75
2021/08/16 00:38:02;;;;;;;14.43;2.00;;;;;;;;;;4809643;28;20196;-75
2021/08/16 00:40:27;;;;;;;15.37;2.07;;;18.70;47.30;;;;;;4810989;28;20553;-75
2021/08/16 00:42:50;;;;;;;8.47;1.27;;;;;;;;;;4810125;28;20192;-77
2021/08/16 00:45:13;;;;;;;9.73;1.40;;;;;;;;;;4808571;28;20199;-76
2021/08/16 00:47:38;;;;;;;7.27;1.10;;;19.30;47.90;;;;;;4808231;28;20230;-75
2021/08/16 00:50:00;;;;;;;16.10;2.17;;;;;;;;;;4806703;28;20194;-76
2021/08/16 00:52:27;;;;;;;9.07;1.30;;;19.30;47.90;;;;;;4807317;28;20230;-75
2021/08/16 00:54:50;;;;;;;9.60;1.40;;;19.20;47.70;;;;;;4804782;28;20185;-75
2021/08/16 00:57:13;;;;;;;10.70;1.57;;;;;;;;;;4808722;28;20194;-76
2021/08/16 00:59:36;;;;;;;6.33;0.93;;;;;;;;;;4802934;28;20216;-76
2021/08/16 01:01:59;;;;;;;15.17;2.00;;;;;;;;;;4808532;28;20317;-80
2021/08/16 01:04:21;;;;;;;9.67;1.33;;;;;;;;;;4809018;28;20205;-76
2021/08/16 01:06:44;;;;;;;6.97;1.07;;;;;;;;;;4808372;28;20226;-75
2021/08/16 01:09:08;;;;;;;15.70;2.07;;;19.30;47.60;;;;;;4807774;28;20255;-79
2021/08/16 01:11:32;;;;;;;9.50;1.47;;;19.40;47.90;;;;;;4814513;28;20222;-77
2021/08/16 01:13:55;;;;;;;15.63;2.13;;;;;;;;;;4813906;28;20212;-77
2021/08/16 01:16:20;;;;;;;11.07;1.50;;;19.60;48.00;;;;;;4805619;28;20204;-76
2021/08/16 01:18:43;;;;;;;8.03;1.17;;;19.70;47.70;;;;;;4811294;28;20622;-75
2021/08/16 01:21:07;;;;;;;15.27;2.03;;;19.80;47.70;;;;;;4809208;28;20209;-78
2021/08/16 01:23:30;;;;;;;5.30;0.80;;;;;;;;;;4790408;28;20658;-74
2021/08/16 01:25:54;;;;;;;13.83;1.87;;;20.00;45.20;;;;;;4799371;28;20204;-75
2021/08/16 01:28:19;;;;;;;8.23;1.30;;;20.10;44.00;;;;;;4809146;28;20192;-74
2021/08/16 01:30:42;;;;;;;5.13;0.77;;;;;;;;;;4808126;28;20258;-74
2021/08/16 01:33:05;;;;;;;13.53;1.90;;;;;;;;;;4810536;28;20270;-84
2021/08/16 01:35:28;;;;;;;6.20;0.87;;;;;;;;;;4807403;28;20204;-85
2021/08/16 01:37:50;;;;;;;4.97;0.70;;;;;;;;;;4802292;28;20247;-88
2021/08/16 01:40:14;;;;;;;5.30;0.80;;;19.70;41.00;;;;;;4807770;28;20187;-85
2021/08/16 01:42:37;;;;;;;4.50;0.80;;;;;;;;;;4802603;28;20189;-86
2021/08/16 01:45:01;;;;;;;9.47;1.43;;;19.70;41.60;;;;;;4816292;28;20243;-87
2021/08/16 01:47:24;;;;;;;6.90;1.13;;;;;;;;;;4828178;28;20234;-86
2021/08/16 01:49:48;;;;;;;11.17;1.73;;;19.60;41.30;;;;;;4803207;28;20216;-78
2021/08/16 01:52:11;;;;;;;6.13;1.00;;;;;;;;;;4800756;28;20223;-83
2021/08/16 01:54:34;;;;;;;5.60;0.90;;;19.90;37.90;;;;;;4813640;28;20617;-75
2021/08/16 01:56:56;;;;;;;12.37;1.87;;;;;;;;;;4806804;28;20232;-85
2021/08/16 01:59:19;;;;;;;8.37;1.40;;;;;;;;;;4802481;28;20221;-79
2021/08/16 02:01:43;;;;;;;7.93;1.23;;;19.30;36.60;;;;;;4814945;28;20241;-83
2021/08/16 02:04:06;;;;;;;11.73;1.73;;;;;;;;;;4803344;28;20193;-83
2021/08/16 02:06:29;;;;;;;6.20;0.90;;;;;;;;;;4803564;28;20192;-80
2021/08/16 02:08:52;;;;;;;5.43;0.83;;;;;;;;;;4807144;28;20228;-82
2021/08/16 02:11:14;;;;;;;9.53;1.43;;;;;;;;;;4816651;28;20224;-82
2021/08/16 02:13:37;;;;;;;5.10;0.87;;;;;;;;;;4812387;28;20574;-84
2021/08/16 02:16:00;;;;;;;11.37;1.80;;;;;;;;;;4814244;28;20229;-85
2021/08/16 02:18:24;;;;;;;9.07;1.43;;;19.10;34.60;;;;;;4827028;28;20216;-73
2021/08/16 02:20:47;;;;;;;7.50;1.20;;;;;;;;;;4811370;28;20204;-73
2021/08/16 02:23:10;;;;;;;5.43;0.93;;;18.60;32.90;;;;;;4814815;28;20194;-74
2021/08/16 02:25:32;;;;;;;6.13;0.97;;;;;;;;;;4810319;28;20183;-76
2021/08/16 02:27:55;;;;;;;11.60;1.77;;;;;;;;;;4813745;28;20720;-73
2021/08/16 02:30:20;;;;;;;7.40;1.23;;;18.60;32.40;;;;;;4810274;28;20290;-74
2021/08/16 02:32:42;;;;;;;4.97;0.97;;;18.60;32.10;;;;;;4812187;28;20221;-73
2021/08/16 02:35:08;;;;;;;10.50;1.63;;;16.80;32.10;;;;;;4813469;28;20244;-75
2021/08/16 02:37:31;;;;;;;6.63;1.13;;;;;;;;;;4809584;28;20667;-78
2021/08/16 02:39:54;;;;;;;11.87;1.87;;;18.70;31.70;;;;;;4809140;28;20288;-76
2021/08/16 02:42:17;;;;;;;8.77;1.43;;;;;;;;;;4817070;28;20187;-76
2021/08/16 02:44:40;;;;;;;4.90;0.80;;;;;;;;;;4819729;28;20193;-75
2021/08/16 02:47:02;;;;;;;11.53;1.80;;;;;;;;;;4813634;28;20194;-73
2021/08/16 02:49:27;;;;;;;7.23;1.17;;;18.30;32.30;;;;;;4809449;28;20612;-73
2021/08/16 02:51:51;;;;;;;5.97;1.00;;;19.20;31.80;;;;;;4814099;28;20221;-73
2021/08/16 02:54:14;;;;;;;7.20;1.27;;;;;;;;;;4802511;28;20231;-74
2021/08/16 02:56:37;;;;;;;5.50;0.93;;;;;;;;;;4805382;28;20188;-76
2021/08/16 02:58:59;;;;;;;11.47;1.80;;;;;;;;;;4806086;28;20201;-74
2021/08/16 03:01:24;;;;;;;8.13;1.30;;;;;;;;;;4811259;28;20363;-74
2021/08/16 03:03:47;;;;;;;6.93;1.10;;;;;;;;;;4811973;28;20709;-74
2021/08/16 03:06:10;;;;;;;6.27;1.00;;;17.70;31.70;;;;;;4809439;28;20205;-75
2021/08/16 03:08:35;;;;;;;5.90;1.00;;;19.10;32.30;;;;;;4813085;28;20722;-74
2021/08/16 03:10:58;;;;;;;14.37;2.10;;;;;;;;;;4794003;28;20217;-73
2021/08/16 03:13:21;;;;;;;9.13;1.47;;;19.60;31.80;;;;;;4813338;28;20209;-73
2021/08/16 03:15:43;;;;;;;6.63;1.10;;;18.80;31.70;;;;;;4812389;28;20194;-79
2021/08/16 03:18:08;;;;;;;12.47;1.87;;;;;;;;;;4809878;28;20247;-80
2021/08/16 03:20:30;;;;;;;4.57;0.73;;;;;;;;;;4806353;28;20245;-82
2021/08/16 03:22:53;;;;;;;9.97;1.57;;;19.00;32.00;;;;;;4804600;28;20246;-83
2021/08/16 03:25:17;;;;;;;9.47;1.43;;;19.30;33.10;;;;;;4793647;28;20660;-82
2021/08/16 03:27:39;;;;;;;6.40;1.00;;;;;;;;;;4813354;28;20726;-85
2021/08/16 03:30:02;;;;;;;10.20;1.53;;;;;;;;;;4809641;28;20192;-85
2021/08/16 03:32:26;;;;;;;8.13;1.27;;;19.40;36.20;;;;;;4806889;28;20207;-86
2021/08/16 03:34:49;;;;;;;4.50;0.70;;;;;;;;;;4809220;28;20576;-80
2021/08/16 03:37:12;;;;;;;7.57;1.20;;;;;;;;;;4812769;28;20197;-85
2021/08/16 03:39:35;;;;;;;6.17;0.90;;;;;;;;;;4813976;28;20235;-86
2021/08/16 03:41:59;;;;;;;11.73;1.77;;;19.20;36.10;;;;;;4809784;28;20733;-85
2021/08/16 03:44:21;;;;;;;9.10;1.37;;;;;;;;;;4812464;28;20239;-85
2021/08/16 03:46:44;;;;;;;7.03;1.20;;;;;;;;;;4791587;28;20220;-85
2021/08/16 03:49:07;;;;;;;13.30;1.93;;;;;;;;;;4807750;28;20203;-83
2021/08/16 03:51:30;;;;;;;4.77;0.73;;;;;;;;;;4813470;28;20272;-85
2021/08/16 03:53:53;;;;;;;9.97;1.57;;;;;;;;;;4812992;28;20205;-87
2021/08/16 03:56:16;;;;;;;12.73;1.97;;;;;;;;;;4812648;28;20590;-83
2021/08/16 03:58:41;;;;;;;5.73;0.90;;;19.20;36.10;;;;;;4812110;28;20667;-84
2021/08/16 04:01:04;;;;;;;11.70;1.70;;;;;;;;;;4814150;28;20241;-84
2021/08/16 04:03:27;;;;;;;6.73;1.10;;;;;;;;;;4806438;28;20742;-83
2021/08/16 04:05:50;;;;;;;3.37;0.60;;;;;;;;;;4809994;28;20192;-83
2021/08/16 04:08:13;;;;;;;8.77;1.33;;;;;;;;;;4808543;28;20504;-83
2021/08/16 04:10:54;;;;;;;5.80;1.00;;;19.00;35.60;;;;;;4920505;23;20287;-81
2021/08/16 04:13:17;;;;;;;8.27;1.40;;;18.90;35.70;;;;;;4833048;28;20234;-79
2021/08/16 04:15:41;;;;;;;7.13;1.17;;;19.20;37.30;;;;;;4847589;28;20203;-83
2021/08/16 04:18:04;;;;;;;13.17;2.03;;;19.00;35.70;;;;;;4847112;28;20570;-74
2021/08/16 04:20:26;;;;;;;7.83;1.23;;;19.70;34.70;;;;;;4854710;28;20193;-85
2021/08/16 04:22:49;;;;;;;4.80;0.80;;;;;;;;;;4847109;28;20250;-77
2021/08/16 04:25:13;;;;;;;7.00;1.17;;;19.20;34.20;;;;;;4848583;28;20189;-83
2021/08/16 04:27:36;;;;;;;5.77;0.93;;;;;;;;;;4856444;28;20190;-86
2021/08/16 04:29:59;;;;;;;12.43;2.00;;;19.10;32.90;;;;;;4832557;28;20199;-81
2021/08/16 04:32:22;;;;;;;8.37;1.40;;;19.10;33.40;;;;;;4845203;28;20189;-83
2021/08/16 04:34:45;;;;;;;6.67;1.10;;;;;;;;;;4845925;28;20273;-84
2021/08/16 04:37:08;;;;;;;12.33;1.90;;;;;;;;;;4852793;28;20181;-81
2021/08/16 04:39:30;;;;;;;4.37;0.73;;;18.90;32.80;;;;;;4846333;28;20219;-82
2021/08/16 04:41:53;;;;;;;7.93;1.27;;;;;;;;;;4845791;28;20235;-82
2021/08/16 04:44:16;;;;;;;8.33;1.23;;;;;;;;;;4836468;28;20587;-73
2021/08/16 04:46:38;;;;;;;6.40;0.97;;;;;;;;;;4851356;28;20201;-73
2021/08/16 04:49:02;;;;;;;9.33;1.53;;;19.20;33.50;;;;;;4846129;28;20181;-73
2021/08/16 04:51:25;;;;;;;6.93;1.07;;;;;;;;;;4849423;28;20529;-74
2021/08/16 04:53:48;;;;;;;8.60;1.37;;;;;;;;;;4851892;28;20347;-74
2021/08/16 04:56:10;;;;;;;5.57;0.90;;;;;;;;;;4839529;28;20206;-75
2021/08/16 04:58:33;;;;;;;7.43;1.17;;;;;;;;;;4843639;28;20192;-73
2021/08/16 05:00:56;;;;;;;12.67;1.97;;;;;;;;;;4843687;28;20191;-73
2021/08/16 05:03:18;;;;;;;8.70;1.40;;;19.50;32.80;;;;;;4851305;28;20278;-73
2021/08/16 05:05:47;;;;;;;5.77;0.90;;;18.50;32.00;;;;;;4826024;28;20192;-73
2021/08/16 05:08:10;;;;;;;7.00;1.10;;;;;;;;;;4850794;28;20200;-74
2021/08/16 05:10:33;;;;;;;10.77;1.60;;;;;;;;;;4836494;28;20226;-73
2021/08/16 05:13:01;;;;;;;19.17;2.73;;;19.30;32.10;;;;;;4827026;28;20686;-73
2021/08/16 05:15:24;;;;;;;8.10;1.20;;;19.00;31.90;;;;;;4819142;28;20261;-73
2021/08/16 05:17:47;;;;;;;9.67;1.33;;;;;;;;;;4819378;28;20239;-73
2021/08/16 05:20:11;;;;;;;6.80;0.93;;;19.50;32.60;;;;;;4818682;28;20381;-77
2021/08/16 05:22:35;;;;;;;8.40;1.07;;;19.50;32.70;;;;;;4819307;28;20193;-73
2021/08/16 05:24:57;;;;;;;20.50;2.50;;;;;;;;;;4819894;28;20202;-74
2021/08/16 05:27:22;;;;;;;8.90;1.23;;;;;;;;;;4819605;28;20204;-73
2021/08/16 05:29:45;;;;;;;12.83;1.60;;;;;;;;;;4818676;28;20205;-73
2021/08/16 05:32:07;;;;;;;22.03;2.70;;;20.20;33.10;;;;;;4823819;28;20200;-74
2021/08/16 05:34:30;;;;;;;9.10;1.20;;;;;;;;;;4825337;28;20293;-73
2021/08/16 05:36:53;;;;;;;15.40;2.07;;;;;;;;;;4823225;28;20564;-78
2021/08/16 05:39:19;;;;;;;9.90;1.30;;;19.70;32.40;;;;;;4824649;28;20232;-73
2021/08/16 05:41:42;;;;;;;11.87;1.63;;;;;;;;;;4825841;28;20597;-73
2021/08/16 05:44:05;;;;;;;12.77;1.73;;;19.60;31.40;;;;;;4826406;28;20263;-73
2021/08/16 05:46:27;;;;;;;8.93;1.30;;;;;;;;;;4827802;28;20233;-74
2021/08/16 05:48:50;;;;;;;13.27;1.90;;;;;;;;;;4826014;28;20216;-74
2021/08/16 05:51:15;;;;;;;8.83;1.33;;;;;;;;;;4827116;28;20205;-76
2021/08/16 05:53:37;;;;;;;7.77;1.10;;;;;;;;;;4829283;28;20247;-74
2021/08/16 05:56:01;;;;;;;17.30;2.40;;;20.00;33.60;;;;;;4816207;28;20242;-75
2021/08/16 05:58:24;;;;;;;12.70;1.73;;;;;;;;;;4821121;28;20199;-74
2021/08/16 06:00:47;;;;;;;54.23;6.97;;;;;;;;;;4830844;28;20285;-74
2021/08/16 06:03:09;;;;;;;7.73;1.13;;;;;;;;;;4833454;28;20302;-77
2021/08/16 06:05:32;;;;;;;5.97;0.93;;;;;;;;;;4826375;28;20191;-75
2021/08/16 06:07:55;;;;;;;14.73;2.03;;;;;;;;;;4826142;28;20521;-74
2021/08/16 06:10:17;;;;;;;8.40;1.23;;;;;;;;;;4824846;28;20227;-74
2021/08/16 06:12:41;;;;;;;8.17;1.20;;;20.60;35.70;;;;;;4819149;28;20257;-76
2021/08/16 06:15:04;;;;;;;14.23;1.93;;;;;;;;;;4805315;28;20231;-75
2021/08/16 06:17:29;;;;;;;38.57;5.07;;;20.70;37.30;;;;;;4814618;28;20245;-73
2021/08/16 06:19:54;;;;;;;4.67;0.73;;;;;;;;;;4827608;28;20206;-76
2021/08/16 06:22:20;;;;;;;4.93;0.77;;;20.70;41.10;;;;;;4843675;28;20233;-81
2021/08/16 06:24:44;;;;;;;4.63;0.63;;;;;;;;;;4828567;28;20250;-79
2021/08/16 06:27:07;;;;;;;13.13;1.70;;;;;;;;;;4829377;28;20225;-81
2021/08/16 06:29:32;;;;;;;3.97;0.60;;;20.80;41.20;;;;;;4845729;28;20245;-77
2021/08/16 06:31:55;;;;;;;15.93;1.97;;;;;;;;;;4845652;28;20528;-81
2021/08/16 06:34:19;;;;;;;22.03;2.70;;;;;;;;;;4802215;28;20302;-81
2021/08/16 06:36:50;;;;;;;16.53;2.10;;;;;;;;;;4813969;28;20217;-81
2021/08/16 06:39:18;;;;;;;22.10;2.70;;;;;;;;;;4817073;28;20723;-81
2021/08/16 06:41:41;;;;;;;17.57;2.13;;;;;;;;;;4816559;28;20191;-80
2021/08/16 06:44:04;;;;;;;29.73;3.57;;;;;;;;;;4817466;28;20196;-79
2021/08/16 06:46:27;;;;;;;16.07;2.00;;;21.50;45.60;;;;;;4801854;28;20208;-81
2021/08/16 06:48:50;;;;;;;13.73;1.77;;;;;;;;;;4821026;28;20200;-80
2021/08/16 06:51:13;;;;;;;16.57;2.13;;;;;;;;;;4820985;28;20184;-79
2021/08/16 06:53:36;;;;;;;16.70;2.10;;;;;;;;;;4803653;28;20201;-81
2021/08/16 06:56:01;;;;;;;27.00;3.27;;;;;;;;;;4820048;28;20674;-82
2021/08/16 06:58:23;;;;;;;18.00;2.33;;;;;;;;;;4821097;28;20191;-80
2021/08/16 07:00:48;;;;;;;72.23;8.53;;;22.00;47.50;;;;;;4818459;28;20774;-81
2021/08/16 07:03:12;;;;;;;12.03;1.60;;;22.00;48.10;;;;;;4836096;28;20794;-82
2021/08/16 07:05:34;;;;;;;22.43;2.90;;;;;;;;;;4839476;28;20652;-79
2021/08/16 07:07:57;;;;;;;24.20;3.13;;;;;;;;;;4839025;28;20198;-80
2021/08/16 07:10:21;;;;;;;12.70;1.67;;;22.20;49.60;;;;;;4838041;28;20231;-81
2021/08/16 07:12:44;;;;;;;16.10;2.10;;;;;;;;;;4838147;28;20250;-81
2021/08/16 07:15:07;;;;;;;23.97;2.97;;;;;;;;;;4839591;28;20216;-83
2021/08/16 07:17:31;;;;;;;14.00;1.77;;;;;;;;;;4839118;28;20183;-81
2021/08/16 07:19:54;;;;;;;24.23;2.93;;;22.60;49.90;;;;;;4831554;28;20764;-82
2021/08/16 07:22:17;;;;;;;16.83;2.17;;;;;;;;;;4820883;28;20195;-85
2021/08/16 07:24:40;;;;;;;16.53;2.10;;;;;;;;;;4820933;28;20254;-85
2021/08/16 07:27:03;;;;;;;29.87;3.77;;;;;;;;;;4802484;28;20694;-73
2021/08/16 07:29:26;;;;;;;20.00;2.57;;;;;;;;;;4819509;28;20624;-75
2021/08/16 07:31:49;;;;;;;14.90;2.00;;;;;;;;;;4837194;28;20266;-76
2021/08/16 07:34:12;;;;;;;13.10;1.73;;;;;;;;;;4839107;28;20563;-73
2021/08/16 07:36:37;;;;;;;15.43;2.07;;;23.70;52.40;;;;;;4839191;28;20221;-79
2021/08/16 07:38:59;;;;;;;22.80;2.90;;;;;;;;;;4838373;28;20186;-74
2021/08/16 07:41:23;;;;;;;15.17;2.00;;;;;;;;;;4839250;28;20658;-76
2021/08/16 07:43:45;;;;;;;17.03;2.30;;;;;;;;;;4821292;28;20206;-74
2021/08/16 07:46:08;;;;;;;23.53;3.07;;;;;;;;;;4838989;28;20243;-73
2021/08/16 07:48:31;;;;;;;21.37;2.87;;;;;;;;;;4804081;28;20207;-74
2021/08/16 07:50:56;;;;;;;20.53;2.73;;;;;;;;;;4821516;28;20730;-76
2021/08/16 07:53:21;;;;;;;16.13;2.20;;;25.70;40.70;;;;;;4821526;28;20233;-73
2021/08/16 07:55:44;;;;;;;12.07;1.80;;;;;;;;;;4820895;28;20231;-73
2021/08/16 07:58:06;;;;;;;21.10;2.90;;;;;;;;;;4837311;28;20659;-73
2021/08/16 08:00:29;;;;;;;43.50;5.80;;;;;;;;;;4818788;28;20438;-76
2021/08/16 08:02:53;;;;;;;17.37;2.40;;;;;;;;;;4831944;28;20226;-75
2021/08/16 08:05:17;;;;;;;16.17;2.23;;;25.70;41.20;;;;;;4836544;28;20215;-74
2021/08/16 08:07:41;;;;;;;13.07;1.90;;;;;;;;;;4837329;28;20659;-80
2021/08/16 08:10:07;;;;;;;26.50;3.57;;;25.70;41.00;;;;;;4837196;28;20203;-80
2021/08/16 08:12:30;;;;;;;11.67;1.67;;;;;;;;;;4838658;28;20231;-78
2021/08/16 08:14:52;;;;;;;16.47;2.27;;;;;;;;;;4838196;28;20188;-75
2021/08/16 08:17:15;;;;;;;13.70;1.97;;;;;;;;;;4836933;28;20265;-75
2021/08/16 08:19:38;;;;;;;14.57;2.13;;;;;;;;;;4836714;28;20316;-76
2021/08/16 08:22:01;;;;;;;21.37;2.97;;;;;;;;;;4837274;28;20645;-78
2021/08/16 08:24:24;;;;;;;12.63;1.77;;;;;;;;;;4838408;28;20188;-73
2021/08/16 08:26:48;;;;;;;19.77;2.67;;;25.90;42.00;;;;;;4838145;28;20188;-76
2021/08/16 08:29:11;;;;;;;14.07;2.00;;;;;;;;;;4838156;28;20563;-75
2021/08/16 08:31:37;;;;;;;18.00;2.47;;;;;;;;;;4836226;28;20208;-82
2021/08/16 08:34:00;;;;;;;18.93;2.60;;;;;;;;;;4838123;28;20234;-87
2021/08/16 08:36:23;;;;;;;14.43;2.10;;;;;;;;;;4836467;28;20288;-81
2021/08/16 08:38:46;;;;;;;16.50;2.30;;;;;;;;;;4838046;28;20189;-82
2021/08/16 08:41:09;;;;;;;10.63;1.50;;;;;;;;;;4837802;28;20618;-83
2021/08/16 08:43:34;;;;;;;13.90;1.97;;;26.70;42.80;;;;;;4837957;28;20251;-78
2021/08/16 08:45:57;;;;;;;18.67;2.63;;;;;;;;;;4838071;28;20181;-84
2021/08/16 08:48:20;;;;;;;13.53;1.90;;;;;;;;;;4836928;28;20298;-78
2021/08/16 08:50:43;;;;;;;16.27;2.27;;;;;;;;;;4838038;28;20185;-84
2021/08/16 08:53:05;;;;;;;20.87;2.87;;;;;;;;;;4836609;28;20185;-84
2021/08/16 08:55:29;;;;;;;17.07;2.27;;;27.70;43.30;;;;;;4838002;28;20208;-87
2021/08/16 08:57:52;;;;;;;23.07;3.00;;;;;;;;;;4836166;28;20220;-82
2021/08/16 09:00:18;;;;;;;17.07;2.20;;;27.90;44.00;;;;;;4837665;28;20189;-77
2021/08/16 09:02:41;;;;;;;17.23;2.27;;;;;;;;;;4834570;28;20252;-85
2021/08/16 09:05:05;;;;;;;27.17;3.50;;;28.00;44.10;;;;;;4818641;28;20206;-78
2021/08/16 09:07:32;;;;;;;17.83;2.37;;;28.40;44.30;;;;;;4820115;28;20268;-83
2021/08/16 09:09:55;;;;;;;20.40;2.80;;;28.50;44.70;;;;;;4819016;28;20223;-81
2021/08/16 09:12:28;;;;;;;20.40;2.73;;;28.70;44.60;;;;;;4837682;28;20186;-82
2021/08/16 09:14:51;;;;;;;14.83;1.97;;;;;;;;;;4818795;28;20687;-82
2021/08/16 09:17:26;;;;;;;16.63;2.20;;;29.40;44.90;;;;;;4819717;28;20245;-82
2021/08/16 09:19:49;;;;;;;16.57;2.10;;;;;;;;;;4837749;28;20178;-82
2021/08/16 09:22:13;;;;;;;16.17;2.10;;;;;;;;;;4819709;28;20295;-80
2021/08/16 09:24:36;;;;;;;27.60;3.47;;;;;;;;;;4825317;28;20194;-85
2021/08/16 09:27:04;;;;;;;23.50;2.93;;;33.70;47.90;;;;;;4821001;28;20194;-82
2021/08/16 09:29:27;;;;;;;17.23;2.33;;;;;;;;;;4801076;28;20195;-82
2021/08/16 09:31:57;;;;;;;17.23;2.33;;;35.70;49.40;;;;;;4818219;28;20278;-82
2021/08/16 09:34:33;;;;;;;16.23;2.25;;;36.40;50.00;;;;;;4800565;28;20199;-83
2021/08/16 09:37:01;;;;;;;20.40;2.75;;;;;;;;;;4800041;28;20684;-83
2021/08/16 09:39:24;;;;;;;16.33;2.30;;;37.20;49.70;;;;;;4818415;28;20202;-82
2021/08/16 09:41:46;;;;;;;15.50;2.17;;;37.50;50.60;;;;;;4818332;28;20253;-80
2021/08/16 09:44:11;;;;;;;11.65;1.70;;;37.10;50.50;;;;;;4818949;28;20188;-78
2021/08/16 09:46:33;;;;;;;13.23;1.92;;;;;;;;;;4799968;28;20599;-81
2021/08/16 09:48:57;;;;;;;16.73;2.28;;;37.10;49.20;;;;;;4800602;28;20196;-81
2021/08/16 09:51:25;;;;;;;12.57;1.77;;;37.00;49.60;;;;;;4800505;28;20708;-88
2021/08/16 09:53:48;;;;;;;13.82;1.95;;;37.30;50.60;;;;;;4800698;28;20196;-82
2021/08/16 09:56:11;;;;;;;16.45;2.25;;;;;;;;;;4818339;28;20553;-76
2021/08/16 09:58:35;;;;;;;14.55;2.03;;;38.90;50.80;;;;;;4800748;28;20239;-74
2021/08/16 10:00:58;;;;;;;22.73;3.13;;;39.90;51.70;;;;;;4797030;28;20759;-74
2021/08/16 10:03:21;;;;;;;17.13;2.33;;;;;;;;;;4836667;28;20253;-75
2021/08/16 10:05:46;;;;;;;14.35;2.05;;;41.50;52.30;;;;;;4835907;28;20846;-75
2021/08/16 10:08:12;;;;;;;11.10;1.60;;;41.80;52.50;;;;;;4835723;28;20194;-78
2021/08/16 10:10:35;;;;;;;17.10;2.38;;;;;;;;;;4833211;28;20234;-73
2021/08/16 10:12:59;;;;;;;20.75;2.85;;;42.50;51.90;;;;;;4836760;28;20205;-74
2021/08/16 10:18:00;;;;;;;27.95;3.83;;;42.90;53.00;;;;;;4835832;28;20256;-77
2021/08/16 10:20:29;;;;;;;14.77;2.00;;;43.70;53.30;;;;;;4837408;28;20203;-73
2021/08/16 10:22:51;;;;;;;12.82;1.77;;;;;;;;;;4813024;28;20194;-74
2021/08/16 10:25:17;;;;;;;16.13;2.15;;;45.10;53.70;;;;;;4840394;28;20241;-74
2021/08/16 10:27:40;;;;;;;16.67;2.22;;;;;;;;;;4840801;28;20233;-77
2021/08/16 10:30:09;;;;;;;23.92;3.00;;;46.50;54.30;;;;;;4821535;28;20188;-77
2021/08/16 10:32:32;;;;;;;11.85;1.63;;;;;;;;;;4840482;28;20687;-76
2021/08/16 10:35:06;;;;;;;21.90;3.00;;;48.20;55.00;;;;;;4822544;28;20692;-75
2021/08/16 10:37:36;;;;;;;11.48;1.67;;;49.20;55.30;;;;;;4840598;28;20649;-77
2021/08/16 10:40:00;;;;;;;20.52;2.78;;;;;;;;;;4821402;28;20668;-78
2021/08/16 10:42:33;;;;;;;14.10;2.00;;;48.90;55.40;;;;;;4806078;28;20195;-73
2021/08/16 10:44:58;;;;;;;21.70;2.95;;;;;;;;;;4840170;28;20221;-78
2021/08/16 10:47:26;;;;;;;12.40;1.85;;;46.50;54.20;;;;;;4840132;28;20218;-76
2021/08/16 10:49:50;;;;;;;18.80;2.67;;;;;;;;;;4821638;28;20282;-81
2021/08/16 10:52:21;;;;;;;14.38;2.05;;;45.60;54.20;;;;;;4839532;28;20553;-76
2021/08/16 10:54:44;;;;;;;11.70;1.67;;;;;;;;;;4822809;28;20191;-76
2021/08/16 10:57:06;;;;;;;22.77;3.13;;;;;;;;;;4822121;28;20183;-74
2021/08/16 10:59:32;;;;;;;9.45;1.42;;;48.70;55.30;;;;;;4839937;28;20261;-77
2021/08/16 11:01:56;;;;;;;19.13;2.75;;;49.40;55.50;;;;;;4787668;28;20223;-76
2021/08/16 11:04:29;;;;;;;11.82;1.75;;;49.50;55.60;;;;;;4839946;28;20652;-84
2021/08/16 11:06:55;;;;;;;12.82;1.90;;;49.30;55.40;;;;;;4839387;28;20260;-75
2021/08/16 11:09:25;;;;;;;15.68;2.30;;;47.40;54.90;;;;;;4839589;28;20683;-76
2021/08/16 11:11:53;;;;;;;13.85;2.00;;;46.10;54.40;;;;;;4820736;28;20703;-74
2021/08/16 11:14:16;;;;;;;11.75;1.70;;;;;;;;;;4805309;28;20204;-75
2021/08/16 11:16:49;;;;;;;14.35;2.15;;;43.40;53.60;;;;;;4805028;28;20192;-74
2021/08/16 11:19:12;;;;;;;11.88;1.73;;;;;;;;;;4821720;28;20582;-75
2021/08/16 11:21:35;;;;;;;18.27;2.65;;;;;;;;;;4821246;28;20234;-73
2021/08/16 11:23:59;;;;;;;17.85;2.53;;;40.60;52.50;;;;;;4821160;28;20199;-76
2021/08/16 11:26:22;;;;;;;10.48;1.58;;;;;;;;;;4839121;28;20594;-73
2021/08/16 11:28:45;;;;;;;13.63;1.98;;;;;;;;;;4814996;28;20696;-74
2021/08/16 11:31:09;;;;;;;18.92;2.63;;;39.30;51.90;;;;;;4802122;28;20520;-77
2021/08/16 11:33:34;;;;;;;11.70;1.70;;;38.60;51.50;;;;;;4817213;28;20199;-82
2021/08/16 11:36:08;;;;;;;19.67;2.60;;;39.40;51.90;;;;;;4820022;28;20648;-76
2021/08/16 11:38:31;;;;;;;13.63;1.80;;;;;;;;;;4820245;28;20194;-77
2021/08/16 11:41:03;;;;;;;21.52;2.70;;;43.70;53.40;;;;;;4819886;28;20184;-75
2021/08/16 11:43:27;;;;;;;22.90;3.03;;;;;;;;;;4819449;28;20179;-75
2021/08/16 11:45:50;;;;;;;16.40;2.15;;;;;;;;;;4820276;28;20187;-79
2021/08/16 11:48:13;;;;;;;12.63;1.70;;;;;;;;;;4803152;28;20262;-85
2021/08/16 11:50:38;;;;;;;19.33;2.53;;;49.80;55.60;;;;;;4820337;28;20192;-81
2021/08/16 11:53:00;;;;;;;26.98;3.42;;;;;;;;;;4785916;28;20196;-82
2021/08/16 11:55:26;;;;;;;15.18;2.10;;;51.90;56.30;;;;;;4819112;28;20253;-79
2021/08/16 11:57:53;;;;;;;16.45;2.30;;;52.00;56.40;;;;;;4820085;28;20238;-82
2021/08/16 12:00:23;;;;;;;16.27;3.63;;;52.60;56.40;;;;;;4801768;28;20254;-83
2021/08/16 12:02:45;;;;;;;14.25;2.08;;;;;;;;;;4828850;28;20287;-81
2021/08/16 12:05:10;;;;;;;21.30;2.95;;;53.50;57.00;;;;;;4837932;28;20682;-79
2021/08/16 12:07:34;;;;;;;9.82;1.58;;;54.00;49.70;;;;;;4838597;28;20210;-84
2021/08/16 12:09:58;;;;;;;17.38;2.53;;;54.60;49.80;;;;;;4820110;28;20625;-80
2021/08/16 12:12:22;;;;;;;12.90;1.90;;;55.20;50.00;;;;;;4837318;28;20202;-82
2021/08/16 12:14:45;;;;;;;14.15;2.08;;;;;;;;;;4838851;28;20201;-85
2021/08/16 12:17:09;;;;;;;15.60;2.28;;;54.90;50.00;;;;;;4838114;28;20201;-84
2021/08/16 12:19:32;;;;;;;11.55;1.80;;;;;;;;;;4837120;28;20210;-82
2021/08/16 12:22:08;;;;;;;14.25;2.22;;;55.30;50.00;;;;;;4836720;28;20244;-84
2021/08/16 12:24:32;;;;;;;7.63;1.27;;;55.10;50.10;;;;;;4837620;28;20268;-86
2021/08/16 12:27:00;;;;;;;17.30;2.60;;;55.20;50.10;;;;;;4836189;28;20627;-81
2021/08/16 12:29:23;;;;;;;11.80;1.90;;;;;;;;;;4838058;28;20230;-76
2021/08/16 12:31:46;;;;;;;14.93;2.25;;;;;;;;;;4836781;28;20651;-75
2021/08/16 12:34:11;;;;;;;17.98;2.58;;;;;;;;;;4836520;28;20301;-76
2021/08/16 12:36:36;;;;;;;17.20;2.67;;;56.60;50.50;;;;;;4837455;28;20190;-79
2021/08/16 12:39:01;;;;;;;20.50;3.08;;;56.70;50.60;;;;;;4837574;28;20182;-78
2021/08/16 12:41:26;;;;;;;12.70;2.03;;;57.40;50.10;;;;;;4837951;28;20264;-74
2021/08/16 12:43:50;;;;;;;13.20;2.05;;;;;;;;;;4836521;28;20190;-74
2021/08/16 12:46:13;;;;;;;10.23;1.65;;;;;;;;;;4836536;28;20200;-74
2021/08/16 12:48:43;;;;;;;13.98;2.22;;;56.80;50.80;;;;;;4835703;28;20310;-73
2021/08/16 12:51:06;;;;;;;20.10;3.00;;;;;;;;;;4820245;28;20194;-78
2021/08/16 12:53:30;;;;;;;10.52;1.73;;;;;;;;;;4837818;28;20182;-80
2021/08/16 12:55:56;;;;;;;9.60;1.67;;;;;;;;;;4837835;28;20193;-80
2021/08/16 12:58:20;;;;;;;9.18;1.65;;;54.80;50.10;;;;;;4835944;28;20190;-78
2021/08/16 13:00:43;;;;;;;60.35;9.25;;;;;;;;;;4836280;28;20178;-89
2021/08/16 13:03:06;;;;;;;22.85;3.70;;;;;;;;;;4835676;28;20233;-81
2021/08/16 13:05:31;;;;;;;12.15;2.03;;;;;;;;;;4838015;28;20622;-86
2021/08/16 13:07:54;;;;;;;11.38;1.83;;;;;;;;;;4837931;28;20953;-82
2021/08/16 13:10:16;;;;;;;13.07;2.15;;;;;;;;;;4802739;28;20318;-85
2021/08/16 13:12:39;;;;;;;11.07;1.77;;;;;;;;;;4801024;28;20242;-88
2021/08/16 13:15:03;;;;;;;17.98;2.55;;;48.60;55.50;;;;;;4817508;28;20245;-85
2021/08/16 13:17:27;;;;;;;11.90;1.85;;;47.00;54.90;;;;;;4818338;28;20191;-81
2021/08/16 13:19:50;;;;;;;12.45;1.90;;;;;;;;;;4815841;28;20611;-79
2021/08/16 13:22:13;;;;;;;24.20;3.35;;;46.60;54.60;;;;;;4817004;28;20645;-82
2021/08/16 13:24:36;;;;;;;9.95;1.55;;;;;;;;;;4818379;28;20237;-83
2021/08/16 13:26:59;;;;;;;14.48;2.13;;;44.50;53.60;;;;;;4818309;28;20186;-83
2021/08/16 13:29:22;;;;;;;12.07;1.83;;;;;;;;;;4818478;28;20648;-83